Time;durP1;ratioP1;P1;durP2;ratioP2;P2;SDS_P1;SDS_P2;PMS_P1;PMS_P2;Temp;Humidity;BMP_temperature;BMP_pressure;BME280_temperature;BME280_humidity;BME280_pressure;Samples;Min_cycle;Max_cycle;Signal;HPM_P1;HPM_P2
2022/09/11 00:00:44;;;;;;;1.05;0.30;;;;;;;;;;5065906;28;20031;-46
2022/09/11 00:03:10;;;;;;;0.98;0.50;;;;;;;;;;5069660;28;20016;-46
2022/09/11 00:05:40;;;;;;;1.20;0.85;;;;;;;;;;5050598;28;20081;-46
2022/09/11 00:08:07;;;;;;;0.65;0.40;;;;;;;;;;5042866;28;20030;-46
2022/09/11 00:10:36;;;;;;;0.98;0.52;;;;;;;;;;5057386;28;20025;-46
2022/09/11 00:13:03;;;;;;;0.95;0.40;;;;;;;;;;5050576;28;20540;-46
2022/09/11 00:15:29;;;;;;;1.27;0.40;;;;;;;;;;5059489;28;20119;-46
2022/09/11 00:17:56;;;;;;;0.93;0.45;;;;;;;;;;5053773;28;20021;-44
2022/09/11 00:20:22;;;;;;;28.48;1.70;;;;;;;;;;5050693;28;20086;-45
2022/09/11 00:22:48;;;;;;;1.65;0.40;;;;;;;;;;5052557;28;20020;-47
2022/09/11 00:25:14;;;;;;;0.43;0.35;;;;;;;;;;5066871;28;20029;-44
2022/09/11 00:27:40;;;;;;;2.00;0.50;;;;;;;;;;5064340;28;20025;-46
2022/09/11 00:30:06;;;;;;;0.68;0.50;;;;;;;;;;5064749;28;20033;-45
2022/09/11 00:32:32;;;;;;;1.25;0.47;;;;;;;;;;5063295;28;20095;-44
2022/09/11 00:34:59;;;;;;;0.75;0.40;;;;;;;;;;5065196;28;20491;-44
2022/09/11 00:37:25;;;;;;;1.48;0.40;;;;;;;;;;5068921;28;20385;-48
2022/09/11 00:39:51;;;;;;;1.02;0.38;;;;;;;;;;5060469;28;20025;-52
2022/09/11 00:42:17;;;;;;;1.45;0.50;;;;;;;;;;5065322;28;20033;-47
2022/09/11 00:44:44;;;;;;;1.25;0.60;;;;;;;;;;5059912;28;20060;-44
2022/09/11 00:47:14;;;;;;;1.85;0.40;;;;;;;;;;5059711;28;20108;-44
2022/09/11 00:49:44;;;;;;;0.50;0.50;;;;;;;;;;5068227;28;20036;-44
2022/09/11 00:52:19;;;;;;;1.75;0.40;;;;;;;;;;5068440;28;20025;-46
2022/09/11 00:54:49;;;;;;;0.68;0.40;;;;;;;;;;5066963;28;20063;-46
2022/09/11 00:57:15;;;;;;;2.60;0.40;;;;;;;;;;5063853;28;20021;-45
2022/09/11 00:59:42;;;;;;;0.57;0.40;;;;;;;;;;5066878;28;20021;-44
2022/09/11 01:02:12;;;;;;;1.25;0.40;;;;;;;;;;5067360;28;20159;-44
2022/09/11 01:04:38;;;;;;;1.25;0.50;;;;;;;;;;5064621;28;20044;-44
2022/09/11 01:07:04;;;;;;;1.10;0.30;;;;;;;;;;5061807;28;20029;-45
2022/09/11 01:09:31;;;;;;;1.05;0.60;;;;;;;;;;5068651;28;20024;-44
2022/09/11 01:12:05;;;;;;;0.60;0.50;;;;;;;;;;5065307;28;20021;-45
2022/09/11 01:14:46;;;;;;;0.65;0.32;;;;;;;;;;5068130;28;20017;-44
2022/09/11 01:17:14;;;;;;;1.13;0.30;;;;;;;;;;5053406;28;20091;-44
2022/09/11 01:20:04;;;;;;;1.58;0.60;;;;;;;;;;5053873;28;20386;-44
2022/09/11 01:22:49;;;;;;;1.05;0.50;;;;;;;;;;5053734;28;20021;-44
2022/09/11 01:25:20;;;;;;;0.85;0.40;;;;;;;;;;5060720;28;20037;-45
2022/09/11 01:27:46;;;;;;;;;;;;;;;;;;5073827;28;20381;-45
2022/09/11 01:30:19;;;;;;;0.75;0.40;;;;;;;;;;5060629;28;19909;-44
2022/09/11 01:33:10;;;;;;;1.67;0.60;;;;;;;;;;5053607;28;20068;-44
2022/09/11 01:35:48;;;;;;;1.20;0.60;;;;;;;;;;5048385;28;20041;-45
2022/09/11 01:38:16;;;;;;;0.47;0.38;;;;;;;;;;5054627;28;20028;-45
2022/09/11 01:40:47;;;;;;;0.55;0.55;;;;;;;;;;5068783;28;20048;-45
2022/09/11 01:43:15;;;;;;;0.50;0.30;;;;;;;;;;5050288;28;20033;-45
2022/09/11 01:45:43;;;;;;;1.48;0.40;;;;;;;;;;5073552;28;20024;-45
2022/09/11 01:48:10;;;;;;;3.38;0.60;;;;;;;;;;5072911;28;20024;-44
2022/09/11 01:50:37;;;;;;;0.75;0.47;;;;;;;;;;5056926;28;20040;-46
2022/09/11 01:53:05;;;;;;;0.50;0.40;;;;;;;;;;5073109;28;20021;-44
2022/09/11 01:55:36;;;;;;;1.00;0.55;;;;;;;;;;5051618;28;20025;-44
2022/09/11 01:58:12;;;;;;;1.00;0.57;;;;;;;;;;5061522;28;20056;-45
2022/09/11 02:00:39;;;;;;;0.63;0.30;;;;;;;;;;5053786;28;20021;-47
2022/09/11 02:03:23;;;;;;;0.30;0.30;;;;;;;;;;5047882;28;20074;-45
2022/09/11 02:05:55;;;;;;;1.40;0.50;;;;;;;;;;5061416;28;20045;-46
2022/09/11 02:08:29;;;;;;;2.42;0.45;;;;;;;;;;5052762;28;20474;-44
2022/09/11 02:11:02;;;;;;;0.43;0.40;;;;;;;;;;5053260;28;20025;-49
2022/09/11 02:13:47;;;;;;;1.23;0.55;;;;;;;;;;5055028;28;20027;-44
2022/09/11 02:16:30;;;;;;;0.55;0.30;;;;;;;;;;5052857;28;20107;-44
2022/09/11 02:18:58;;;;;;;0.40;0.30;;;;;;;;;;5053337;28;20031;-51
2022/09/11 02:21:26;;;;;;;1.05;0.30;;;;;;;;;;5052814;28;20045;-44
2022/09/11 02:23:54;;;;;;;0.70;0.35;;;;;;;;;;5053447;28;20474;-49
2022/09/11 02:26:22;;;;;;;0.30;0.30;;;;;;;;;;5060778;28;20040;-45
2022/09/11 02:28:48;;;;;;;1.25;0.60;;;;;;;;;;5052917;28;20029;-44
2022/09/11 02:31:15;;;;;;;1.00;0.40;;;;;;;;;;5052637;28;20654;-44
2022/09/11 02:33:42;;;;;;;0.85;0.52;;;;;;;;;;5052606;28;20029;-44
2022/09/11 02:36:08;;;;;;;0.43;0.40;;;;;;;;;;5053594;28;20036;-44
2022/09/11 02:38:57;;;;;;;3.33;0.40;;;;;;;;;;5052548;28;20025;-45
2022/09/11 02:41:27;;;;;;;1.02;0.40;;;;;;;;;;5048985;28;20047;-44
2022/09/11 02:43:59;;;;;;;1.52;0.40;;;;;;;;;;5067866;28;20017;-44
2022/09/11 02:46:33;;;;;;;0.70;0.40;;;;;;;;;;5051600;28;20033;-44
2022/09/11 02:49:06;;;;;;;0.77;0.43;;;;;;;;;;5066391;28;20025;-44
2022/09/11 02:51:51;;;;;;;0.85;0.40;;;;;;;;;;5068454;28;20109;-44
2022/09/11 02:54:26;;;;;;;0.32;0.30;;;;;;;;;;5059172;28;20612;-44
2022/09/11 02:57:06;;;;;;;0.85;0.40;;;;;;;;;;5062006;28;20029;-44
2022/09/11 02:59:36;;;;;;;0.52;0.40;;;;;;;;;;5052979;28;20025;-44
2022/09/11 03:02:02;;;;;;;0.95;0.43;;;;;;;;;;5053302;28;20156;-44
2022/09/11 03:04:30;;;;;;;2.05;0.75;;;;;;;;;;5066504;28;20116;-46
2022/09/11 03:06:57;;;;;;;1.58;0.30;;;;;;;;;;5052361;28;20041;-51
2022/09/11 03:09:23;;;;;;;1.48;0.50;;;;;;;;;;5052777;28;20048;-45
2022/09/11 03:11:49;;;;;;;1.48;0.50;;;;;;;;;;5052983;28;20029;-45
2022/09/11 03:14:16;;;;;;;0.70;0.60;;;;;;;;;;5051616;28;20524;-45
2022/09/11 03:16:42;;;;;;;0.77;0.45;;;;;;;;;;5051601;28;20040;-45
2022/09/11 03:19:08;;;;;;;0.88;0.38;;;;;;;;;;5051574;28;20389;-44
2022/09/11 03:21:35;;;;;;;0.52;0.40;;;;;;;;;;5059338;28;20032;-44
2022/09/11 03:24:02;;;;;;;1.35;0.60;;;;;;;;;;5054188;28;21833;-44
2022/09/11 03:26:30;;;;;;;0.45;0.35;;;;;;;;;;5071919;28;20105;-45
2022/09/11 03:28:56;;;;;;;2.30;0.63;;;;;;;;;;5058745;28;20499;-49
2022/09/11 03:31:22;;;;;;;1.10;0.52;;;;;;;;;;5050933;28;20017;-45
2022/09/11 03:33:48;;;;;;;1.08;0.40;;;;;;;;;;5052186;28;20454;-46
2022/09/11 03:36:14;;;;;;;0.95;0.45;;;;;;;;;;5050761;28;20107;-43
2022/09/11 03:38:40;;;;;;;0.77;0.50;;;;;;;;;;5060671;28;20024;-43
2022/09/11 03:41:08;;;;;;;0.68;0.50;;;;;;;;;;5046605;28;20033;-44
2022/09/11 03:43:34;;;;;;;1.30;0.40;;;;;;;;;;5050612;28;20025;-43
2022/09/11 03:46:00;;;;;;;2.25;0.40;;;;;;;;;;5065418;28;20485;-49
2022/09/11 03:48:26;;;;;;;1.20;0.40;;;;;;;;;;5070704;28;20174;-45
2022/09/11 03:50:52;;;;;;;1.25;0.50;;;;;;;;;;5063573;28;20020;-43
2022/09/11 03:53:18;;;;;;;0.40;0.35;;;;;;;;;;5054960;28;20082;-44
2022/09/11 03:55:45;;;;;;;0.50;0.30;;;;;;;;;;5051079;28;20074;-43
2022/09/11 03:58:11;;;;;;;0.57;0.50;;;;;;;;;;5063101;28;20492;-43
2022/09/11 04:00:41;;;;;;;0.47;0.47;;;;;;;;;;5071235;28;20111;-43
2022/09/11 04:03:07;;;;;;;0.32;0.30;;;;;;;;;;5051571;28;20104;-42
2022/09/11 04:05:33;;;;;;;0.77;0.50;;;;;;;;;;5055750;28;20124;-44
2022/09/11 04:08:01;;;;;;;1.15;0.50;;;;;;;;;;5062411;28;20505;-49
2022/09/11 04:10:27;;;;;;;1.48;0.50;;;;;;;;;;5051376;28;20028;-43
2022/09/11 04:12:52;;;;;;;0.82;0.30;;;;;;;;;;5051652;28;20064;-45
2022/09/11 04:15:18;;;;;;;0.82;0.50;;;;;;;;;;5049829;28;20040;-45
2022/09/11 04:17:45;;;;;;;0.45;0.38;;;;;;;;;;5062928;28;20020;-43
2022/09/11 04:20:11;;;;;;;0.38;0.38;;;;;;;;;;5054712;28;20032;-43
2022/09/11 04:22:38;;;;;;;0.88;0.50;;;;;;;;;;5069285;28;20024;-44
2022/09/11 04:25:04;;;;;;;0.43;0.40;;;;;;;;;;5057398;28;20060;-46
2022/09/11 04:27:30;;;;;;;1.25;0.40;;;;;;;;;;5050835;28;20029;-43
2022/09/11 04:29:56;;;;;;;1.30;0.68;;;;;;;;;;5033718;28;20037;-44
2022/09/11 04:32:22;;;;;;;0.70;0.50;;;;;;;;;;5050489;28;20091;-44
2022/09/11 04:34:48;;;;;;;0.57;0.40;;;;;;;;;;5068221;28;20052;-44
2022/09/11 04:37:15;;;;;;;1.10;0.50;;;;;;;;;;5051286;28;20078;-43
2022/09/11 04:39:41;;;;;;;0.55;0.47;;;;;;;;;;5051151;28;20470;-43
2022/09/11 04:42:09;;;;;;;1.20;0.43;;;;;;;;;;5050687;28;20036;-44
2022/09/11 04:44:35;;;;;;;0.70;0.50;;;;;;;;;;5058664;28;20032;-43
2022/09/11 04:47:01;;;;;;;0.70;0.60;;;;;;;;;;5059205;28;20037;-49
2022/09/11 04:49:27;;;;;;;1.40;0.50;;;;;;;;;;5055173;28;20028;-43
2022/09/11 04:51:53;;;;;;;1.27;0.50;;;;;;;;;;5065460;28;20035;-45
2022/09/11 04:54:20;;;;;;;2.75;0.88;;;;;;;;;;5073768;28;20025;-44
2022/09/11 04:56:47;;;;;;;0.70;0.52;;;;;;;;;;5062706;28;20049;-44
2022/09/11 04:59:15;;;;;;;0.73;0.50;;;;;;;;;;5053958;28;20801;-44
2022/09/11 05:01:42;;;;;;;0.77;0.40;;;;;;;;;;5055352;28;20144;-44
2022/09/11 05:04:11;;;;;;;0.60;0.47;;;;;;;;;;5062251;28;20032;-46
2022/09/11 05:06:37;;;;;;;0.73;0.50;;;;;;;;;;5053501;28;20041;-47
2022/09/11 05:09:05;;;;;;;0.40;0.30;;;;;;;;;;5053596;28;20100;-48
2022/09/11 05:11:31;;;;;;;1.98;1.38;;;;;;;;;;5054828;28;20025;-45
2022/09/11 05:14:00;;;;;;;0.60;0.60;;;;;;;;;;5068142;28;20127;-44
2022/09/11 05:16:27;;;;;;;0.68;0.50;;;;;;;;;;5073090;28;20060;-47
2022/09/11 05:18:53;;;;;;;0.93;0.70;;;;;;;;;;5061597;28;20037;-46
2022/09/11 05:21:21;;;;;;;1.95;0.52;;;;;;;;;;5059751;28;20035;-44
2022/09/11 05:23:48;;;;;;;0.68;0.60;;;;;;;;;;5073497;28;20029;-45
2022/09/11 05:26:18;;;;;;;0.50;0.50;;;;;;;;;;5073264;28;20036;-44
2022/09/11 05:28:44;;;;;;;1.58;0.68;;;;;;;;;;5068153;28;20021;-46
2022/09/11 05:31:11;;;;;;;0.98;0.65;;;;;;;;;;5064350;28;20029;-44
2022/09/11 05:33:38;;;;;;;1.10;0.45;;;;;;;;;;5053864;28;20418;-47
2022/09/11 05:36:05;;;;;;;0.70;0.50;;;;;;;;;;5054045;28;20078;-49
2022/09/11 05:38:31;;;;;;;1.00;0.70;;;;;;;;;;5055888;28;20533;-46
2022/09/11 05:40:57;;;;;;;1.25;0.70;;;;;;;;;;5055311;28;20025;-44
2022/09/11 05:43:23;;;;;;;2.15;0.80;;;;;;;;;;5052903;28;20183;-43
2022/09/11 05:45:56;;;;;;;0.90;0.60;;;;;;;;;;5056329;28;20041;-45
2022/09/11 05:48:22;;;;;;;1.25;0.57;;;;;;;;;;5048814;28;20021;-45
2022/09/11 05:50:52;;;;;;;1.58;1.40;;;;;;;;;;5047429;28;20045;-45
2022/09/11 05:53:19;;;;;;;0.98;0.82;;;;;;;;;;5051488;28;20033;-47
2022/09/11 05:55:46;;;;;;;1.52;1.10;;;;;;;;;;5051781;28;20440;-45
2022/09/11 05:58:12;;;;;;;1.38;0.63;;;;;;;;;;5051196;28;20028;-47
2022/09/11 06:00:39;;;;;;;1.15;0.70;;;;;;;;;;5044009;28;20116;-45
2022/09/11 06:03:06;;;;;;;1.85;0.68;;;;;;;;;;5068992;28;20021;-49
2022/09/11 06:05:32;;;;;;;1.65;0.60;;;;;;;;;;5051182;28;20055;-45
2022/09/11 06:08:00;;;;;;;1.35;0.80;;;;;;;;;;5070543;28;20035;-48
2022/09/11 06:10:26;;;;;;;0.95;0.80;;;;;;;;;;5049246;28;20036;-43
2022/09/11 06:12:52;;;;;;;1.23;0.75;;;;;;;;;;5058297;28;21879;-44
2022/09/11 06:15:18;;;;;;;2.35;0.77;;;;;;;;;;5037009;28;20133;-47
2022/09/11 06:17:44;;;;;;;1.38;0.93;;;;;;;;;;5051919;28;20056;-46
2022/09/11 06:20:11;;;;;;;1.52;0.70;;;;;;;;;;5043157;28;20055;-48
2022/09/11 06:22:37;;;;;;;1.70;0.80;;;;;;;;;;5052893;28;20029;-46
2022/09/11 06:25:03;;;;;;;1.42;1.00;;;;;;;;;;5053333;28;20041;-44
2022/09/11 06:27:30;;;;;;;1.65;0.90;;;;;;;;;;5050924;28;20149;-44
2022/09/11 06:29:55;;;;;;;0.85;0.50;;;;;;;;;;5051978;28;20072;-47
2022/09/11 06:32:22;;;;;;;1.30;1.00;;;;;;;;;;5051423;28;20055;-44
2022/09/11 06:34:48;;;;;;;0.85;0.60;;;;;;;;;;5048867;28;20025;-44
2022/09/11 06:37:14;;;;;;;1.95;0.90;;;;;;;;;;5065335;28;20025;-50
2022/09/11 06:39:43;;;;;;;1.55;0.65;;;;;;;;;;5046196;28;20021;-52
2022/09/11 06:42:09;;;;;;;1.10;0.80;;;;;;;;;;5044775;28;20036;-51
2022/09/11 06:44:35;;;;;;;1.20;0.82;;;;;;;;;;5051135;28;20028;-46
2022/09/11 06:47:01;;;;;;;2.17;0.90;;;;;;;;;;5051945;28;20413;-43
2022/09/11 06:49:27;;;;;;;1.23;1.02;;;;;;;;;;5047517;28;20021;-46
2022/09/11 06:51:53;;;;;;;1.20;0.75;;;;;;;;;;5049097;28;20606;-47
2022/09/11 06:54:20;;;;;;;2.45;0.90;;;;;;;;;;5049265;28;20036;-47
2022/09/11 06:56:46;;;;;;;1.27;1.10;;;;;;;;;;5049847;28;20048;-45
2022/09/11 06:59:13;;;;;;;3.15;1.58;;;;;;;;;;5050297;28;20033;-49
2022/09/11 07:01:39;;;;;;;1.10;0.95;;;;;;;;;;5049819;28;20037;-46
2022/09/11 07:04:05;;;;;;;2.20;1.05;;;;;;;;;;5048642;28;20559;-45
2022/09/11 07:06:31;;;;;;;1.75;1.15;;;;;;;;;;5047641;28;20048;-48
2022/09/11 07:09:02;;;;;;;1.80;1.00;;;;;;;;;;5048724;28;20021;-46
2022/09/11 07:11:31;;;;;;;1.40;0.95;;;;;;;;;;5046318;28;20620;-47
2022/09/11 07:13:58;;;;;;;1.17;0.93;;;;;;;;;;5046077;28;20032;-47
2022/09/11 07:16:24;;;;;;;2.38;1.00;;;;;;;;;;5048299;28;20470;-46
2022/09/11 07:18:53;;;;;;;2.50;0.80;;;;;;;;;;5049019;28;20033;-46
2022/09/11 07:21:20;;;;;;;1.52;1.17;;;;;;;;;;5044506;28;20045;-48
2022/09/11 07:23:50;;;;;;;2.70;1.20;;;;;;;;;;5049914;28;20024;-45
2022/09/11 07:26:17;;;;;;;3.00;1.00;;;;;;;;;;5038059;28;20072;-47
2022/09/11 07:28:43;;;;;;;1.63;1.10;;;;;;;;;;5050109;28;20481;-43
2022/09/11 07:31:13;;;;;;;1.35;0.85;;;;;;;;;;5046273;28;20055;-51
2022/09/11 07:33:41;;;;;;;2.28;1.20;;;;;;;;;;5047638;28;20032;-48
2022/09/11 07:36:12;;;;;;;2.95;1.40;;;;;;;;;;5047415;28;20115;-49
2022/09/11 07:38:41;;;;;;;2.17;1.02;;;;;;;;;;5048449;28;20504;-45
2022/09/11 07:41:08;;;;;;;1.75;1.08;;;;;;;;;;5046841;28;20390;-46
2022/09/11 07:43:35;;;;;;;2.00;0.98;;;;;;;;;;5049183;28;20021;-48
2022/09/11 07:46:01;;;;;;;2.40;1.58;;;;;;;;;;5044783;28;20037;-45
2022/09/11 07:48:27;;;;;;;1.23;0.90;;;;;;;;;;5047560;28;20472;-44
2022/09/11 07:51:03;;;;;;;1.13;0.73;;;;;;;;;;5046289;28;20025;-46
2022/09/11 07:53:34;;;;;;;2.08;1.30;;;;;;;;;;5048144;28;20029;-44
2022/09/11 07:56:04;;;;;;;1.90;1.10;;;;;;;;;;5046932;28;20017;-47
2022/09/11 07:58:37;;;;;;;1.20;1.00;;;;;;;;;;5047638;28;20648;-46
2022/09/11 08:01:04;;;;;;;2.63;1.73;;;;;;;;;;5040913;28;20070;-44
2022/09/11 08:03:30;;;;;;;1.10;1.00;;;;;;;;;;5049217;28;20089;-43
2022/09/11 08:05:57;;;;;;;1.75;1.20;;;;;;;;;;5048055;28;20052;-43
2022/09/11 08:08:24;;;;;;;2.53;1.20;;;;;;;;;;5049677;28;20025;-44
2022/09/11 08:10:50;;;;;;;3.65;1.15;;;;;;;;;;5047774;28;20083;-44
2022/09/11 08:13:17;;;;;;;1.23;1.00;;;;;;;;;;5050095;28;20040;-45
2022/09/11 08:15:46;;;;;;;1.60;1.00;;;;;;;;;;5043266;28;20469;-45
2022/09/11 08:18:12;;;;;;;1.15;0.90;;;;;;;;;;5049323;28;20445;-51
2022/09/11 08:20:38;;;;;;;2.33;1.20;;;;;;;;;;5049271;28;20068;-46
2022/09/11 08:23:05;;;;;;;5.30;1.65;;;;;;;;;;5054546;28;20029;-45
2022/09/11 08:25:31;;;;;;;15.18;2.00;;;;;;;;;;5054882;28;20721;-49
2022/09/11 08:27:57;;;;;;;3.50;1.80;;;;;;;;;;5064088;28;20055;-44
2022/09/11 08:30:22;;;;;;;2.33;1.80;;;;;;;;;;5046955;28;20470;-48
2022/09/11 08:32:48;;;;;;;1.88;1.40;;;;;;;;;;5053584;28;20424;-48
2022/09/11 08:35:14;;;;;;;1.67;1.35;;;;;;;;;;5049762;28;20036;-50
2022/09/11 08:37:42;;;;;;;2.17;1.42;;;;;;;;;;5055242;28;20083;-45
2022/09/11 08:40:10;;;;;;;2.53;1.77;;;;;;;;;;5045382;28;20419;-45
2022/09/11 08:42:37;;;;;;;3.33;1.65;;;;;;;;;;5061259;28;20041;-44
2022/09/11 08:45:06;;;;;;;3.83;2.20;;;;;;;;;;5052378;28;20025;-45
2022/09/11 08:47:34;;;;;;;5.47;2.90;;;;;;;;;;5050579;28;20053;-48
2022/09/11 08:50:09;;;;;;;4.10;2.40;;;;;;;;;;5050350;28;20029;-47
2022/09/11 08:52:36;;;;;;;2.90;2.10;;;;;;;;;;5063310;28;20095;-47
2022/09/11 08:55:02;;;;;;;4.40;2.60;;;;;;;;;;5050732;28;20474;-45
2022/09/11 08:57:38;;;;;;;2.92;2.20;;;;;;;;;;5069080;28;20481;-50
2022/09/11 09:00:09;;;;;;;3.67;2.63;;;;;;;;;;5043760;28;20407;-45
2022/09/11 09:02:37;;;;;;;4.75;2.55;;;;;;;;;;5050749;28;20502;-46
2022/09/11 09:05:16;;;;;;;3.53;2.20;;;;;;;;;;5048372;28;20056;-49
2022/09/11 09:07:51;;;;;;;4.15;2.35;;;;;;;;;;5052341;28;20060;-47
2022/09/11 09:10:32;;;;;;;3.50;2.67;;;;;;;;;;5046484;28;20470;-47
2022/09/11 09:13:22;;;;;;;4.90;2.58;;;;;;;;;;5051578;28;20110;-44
2022/09/11 09:15:54;;;;;;;3.67;2.72;;;;;;;;;;5039739;28;20113;-46
2022/09/11 09:18:22;;;;;;;3.60;2.10;;;;;;;;;;5051030;28;20132;-48
2022/09/11 09:21:24;;;;;;;3.15;2.50;;;;;;;;;;5051052;28;20021;-45
2022/09/11 09:23:54;;;;;;;4.53;2.47;;;;;;;;;;5006894;28;20040;-44
2022/09/11 09:26:21;;;;;;;5.20;2.55;;;;;;;;;;5042077;28;20068;-44
2022/09/11 09:28:51;;;;;;;5.18;2.90;;;;;;;;;;5055033;28;20104;-43
2022/09/11 09:31:20;;;;;;;2.45;2.03;;;;;;;;;;5047488;28;20017;-44
2022/09/11 09:33:55;;;;;;;4.90;2.10;;;;;;;;;;5052095;28;20121;-45
2022/09/11 09:36:25;;;;;;;3.63;2.40;;;;;;;;;;5049586;28;20029;-45
2022/09/11 09:38:52;;;;;;;3.35;1.83;;;;;;;;;;5051778;28;20415;-45
2022/09/11 09:41:27;;;;;;;3.65;2.10;;;;;;;;;;5051056;28;20029;-44
2022/09/11 09:44:00;;;;;;;2.25;1.67;;;;;;;;;;5052290;28;20047;-48
2022/09/11 09:46:36;;;;;;;4.78;2.35;;;;;;;;;;5051659;28;20037;-44
2022/09/11 09:49:02;;;;;;;4.47;1.77;;;;;;;;;;5050388;28;20033;-44
2022/09/11 09:51:28;;;;;;;4.20;2.40;;;;;;;;;;5051264;28;20027;-44
2022/09/11 09:53:57;;;;;;;3.50;1.90;;;;;;;;;;5057862;28;20029;-49
2022/09/11 09:56:24;;;;;;;5.93;2.53;;;;;;;;;;5049690;28;20029;-45
2022/09/11 09:58:56;;;;;;;2.63;2.13;;;;;;;;;;5054646;28;20025;-43
2022/09/11 10:01:44;;;;;;;4.80;2.60;;;;;;;;;;5050772;28;20052;-44
2022/09/11 10:04:10;;;;;;;3.03;2.20;;;;;;;;;;5053352;28;20113;-49
2022/09/11 10:06:36;;;;;;;5.50;2.28;;;;;;;;;;5033373;28;20084;-46
2022/09/11 10:09:02;;;;;;;3.40;2.15;;;;;;;;;;5046619;28;20082;-48
2022/09/11 10:11:28;;;;;;;3.22;2.47;;;;;;;;;;5035925;28;20026;-48
2022/09/11 10:13:56;;;;;;;3.25;2.28;;;;;;;;;;5033001;28;20028;-46
2022/09/11 10:16:24;;;;;;;2.38;2.08;;;;;;;;;;5031753;28;20025;-44
2022/09/11 10:18:50;;;;;;;2.38;2.10;;;;;;;;;;5033578;28;20033;-48
2022/09/11 10:21:32;;;;;;;2.35;1.70;;;;;;;;;;5033159;28;20068;-52
2022/09/11 10:23:58;;;;;;;;;;;;;;;;;;5050759;28;20082;-45
2022/09/11 10:26:27;;;;;;;2.88;2.15;;;;;;;;;;5048764;28;19916;-44
2022/09/11 10:28:54;;;;;;;2.40;2.20;;;;;;;;;;5036090;28;20026;-47
2022/09/11 10:31:21;;;;;;;4.05;2.70;;;;;;;;;;5047836;28;20029;-45
2022/09/11 10:33:58;;;;;;;4.65;2.20;;;;;;;;;;5026559;28;20152;-43
2022/09/11 10:36:26;;;;;;;3.30;2.17;;;;;;;;;;5030597;28;20049;-43
2022/09/11 10:38:52;;;;;;;5.40;2.60;;;;;;;;;;5027389;28;20025;-44
2022/09/11 10:41:21;;;;;;;5.13;2.55;;;;;;;;;;5032261;28;20505;-51
2022/09/11 10:43:47;;;;;;;4.05;2.70;;;;;;;;;;5031725;28;20017;-48
2022/09/11 10:46:19;;;;;;;4.55;2.22;;;;;;;;;;5031845;28;20502;-50
2022/09/11 10:48:54;;;;;;;3.75;2.15;;;;;;;;;;5031159;28;20021;-46
2022/09/11 10:51:20;;;;;;;4.70;2.17;;;;;;;;;;5027171;28;20029;-50
2022/09/11 10:54:18;;;;;;;5.55;2.22;;;;;;;;;;5022650;28;20021;-44
2022/09/11 10:56:53;;;;;;;4.68;2.67;;;;;;;;;;5002998;28;20073;-44
2022/09/11 10:59:24;;;;;;;3.40;2.28;;;;;;;;;;5031616;28;20033;-46
2022/09/11 11:01:50;;;;;;;4.63;2.83;;;;;;;;;;5024632;28;20501;-47
2022/09/11 11:04:16;;;;;;;4.53;2.45;;;;;;;;;;5019715;28;20041;-51
2022/09/11 11:06:54;;;;;;;3.60;2.85;;;;;;;;;;5044463;28;20057;-45
2022/09/11 11:09:26;;;;;;;4.15;2.90;;;;;;;;;;5044640;28;20040;-46
2022/09/11 11:12:08;;;;;;;2.85;2.40;;;;;;;;;;5043534;28;20513;-45
2022/09/11 11:14:38;;;;;;;4.38;2.20;;;;;;;;;;5047532;28;20035;-46
2022/09/11 11:17:22;;;;;;;4.28;2.83;;;;;;;;;;5049159;28;20121;-44
2022/09/11 11:20:01;;;;;;;3.20;2.47;;;;;;;;;;5057098;28;20050;-44
2022/09/11 11:22:35;;;;;;;4.45;2.55;;;;;;;;;;5070634;28;20100;-45
2022/09/11 11:25:03;;;;;;;2.38;2.17;;;;;;;;;;5071367;28;20373;-44
2022/09/11 11:27:32;;;;;;;2.88;2.22;;;;;;;;;;5069900;28;20391;-44
2022/09/11 11:30:16;;;;;;;4.00;2.75;;;;;;;;;;5052631;28;20028;-47
2022/09/11 11:32:42;;;;;;;3.50;2.75;;;;;;;;;;5049568;28;20029;-44
2022/09/11 11:35:17;;;;;;;3.70;2.92;;;;;;;;;;5065411;28;20029;-46
2022/09/11 11:37:45;;;;;;;3.13;2.40;;;;;;;;;;5070937;28;20021;-44
2022/09/11 11:40:23;;;;;;;2.92;2.40;;;;;;;;;;5071357;28;20496;-44
2022/09/11 11:42:54;;;;;;;4.47;2.70;;;;;;;;;;5052021;28;20378;-46
2022/09/11 11:45:26;;;;;;;3.75;2.67;;;;;;;;;;5051253;28;20033;-45
2022/09/11 11:47:53;;;;;;;3.90;2.50;;;;;;;;;;5051980;28;20079;-49
2022/09/11 11:50:40;;;;;;;4.55;2.88;;;;;;;;;;5050907;28;20029;-49
2022/09/11 11:53:12;;;;;;;3.20;2.30;;;;;;;;;;5051696;28;20601;-44
2022/09/11 11:55:42;;;;;;;5.07;2.88;;;;;;;;;;5061468;28;20658;-45
2022/09/11 11:58:27;;;;;;;2.72;2.20;;;;;;;;;;5047669;28;20025;-45
2022/09/11 12:01:00;;;;;;;6.63;2.53;;;;;;;;;;5051868;28;20033;-46
2022/09/11 12:03:47;;;;;;;3.88;2.58;;;;;;;;;;5049940;28;20067;-46
2022/09/11 12:06:13;;;;;;;2.45;2.10;;;;;;;;;;5051333;28;20425;-45
2022/09/11 12:08:47;;;;;;;3.03;2.20;;;;;;;;;;5054913;28;20079;-46
2022/09/11 12:11:18;;;;;;;4.85;2.38;;;;;;;;;;5045046;28;20398;-45
2022/09/11 12:13:46;;;;;;;2.40;1.63;;;;;;;;;;5049800;28;20021;-49
2022/09/11 12:16:13;;;;;;;4.70;2.13;;;;;;;;;;5045556;28;20026;-46
2022/09/11 12:18:41;;;;;;;2.90;2.13;;;;;;;;;;5052112;28;20101;-50
2022/09/11 12:21:22;;;;;;;3.15;1.75;;;;;;;;;;5049317;28;20041;-47
2022/09/11 12:23:48;;;;;;;4.03;2.22;;;;;;;;;;5050520;28;20029;-47
2022/09/11 12:26:19;;;;;;;2.22;1.73;;;;;;;;;;5045187;28;20046;-47
2022/09/11 12:28:45;;;;;;;4.30;3.00;;;;;;;;;;5050855;28;20071;-46
2022/09/11 12:31:15;;;;;;;2.10;1.90;;;;;;;;;;5046457;28;20057;-45
2022/09/11 12:33:42;;;;;;;2.58;1.90;;;;;;;;;;5041262;28;20053;-46
2022/09/11 12:36:10;;;;;;;9.43;2.60;;;;;;;;;;5053401;28;20105;-46
2022/09/11 12:38:38;;;;;;;2.78;2.17;;;;;;;;;;5049115;28;20051;-47
2022/09/11 12:41:12;;;;;;;3.13;1.90;;;;;;;;;;5048325;28;20029;-45
2022/09/11 12:43:40;;;;;;;2.28;1.90;;;;;;;;;;5041492;28;20034;-47
2022/09/11 12:46:12;;;;;;;3.70;1.83;;;;;;;;;;5047504;28;20053;-46
2022/09/11 12:48:45;;;;;;;3.13;2.42;;;;;;;;;;5046643;28;20102;-46
2022/09/11 12:51:20;;;;;;;3.05;2.05;;;;;;;;;;5044876;28;20025;-45
2022/09/11 12:53:47;;;;;;;2.80;2.22;;;;;;;;;;5046732;28;20045;-45
2022/09/11 12:56:20;;;;;;;3.33;2.20;;;;;;;;;;5048483;28;20031;-46
2022/09/11 12:58:51;;;;;;;2.72;2.03;;;;;;;;;;5050344;28;20041;-48
2022/09/11 13:01:22;;;;;;;2.35;1.90;;;;;;;;;;5058492;28;20044;-50
2022/09/11 13:03:48;;;;;;;3.20;1.87;;;;;;;;;;5069677;28;20036;-46
2022/09/11 13:06:15;;;;;;;2.45;2.15;;;;;;;;;;5046558;28;20144;-47
2022/09/11 13:08:55;;;;;;;2.97;2.15;;;;;;;;;;5055330;28;20056;-45
2022/09/11 13:11:33;;;;;;;3.15;2.30;;;;;;;;;;5047368;28;20091;-49
2022/09/11 13:13:59;;;;;;;2.00;1.80;;;;;;;;;;5053504;28;20061;-48
2022/09/11 13:16:27;;;;;;;2.97;1.80;;;;;;;;;;5059997;28;20025;-45
2022/09/11 13:19:12;;;;;;;3.03;2.03;;;;;;;;;;5052397;28;20068;-45
2022/09/11 13:21:39;;;;;;;3.85;2.25;;;;;;;;;;5048319;28;20266;-46
2022/09/11 13:24:25;;;;;;;3.75;2.03;;;;;;;;;;5053277;28;20037;-45
2022/09/11 13:26:56;;;;;;;3.08;2.00;;;;;;;;;;5055555;28;20040;-48
2022/09/11 13:29:23;;;;;;;3.30;2.22;;;;;;;;;;5071102;28;20024;-46
2022/09/11 13:31:50;;;;;;;2.33;1.60;;;;;;;;;;5050776;28;20112;-45
2022/09/11 13:34:19;;;;;;;2.53;2.13;;;;;;;;;;5052993;28;20396;-50
2022/09/11 13:36:46;;;;;;;2.95;2.55;;;;;;;;;;5049177;28;20037;-48
2022/09/11 13:39:14;;;;;;;3.13;2.83;;;;;;;;;;5055006;28;20420;-49
2022/09/11 13:41:43;;;;;;;3.10;2.20;;;;;;;;;;5062464;28;20029;-46
2022/09/11 13:44:29;;;;;;;2.90;2.38;;;;;;;;;;5051846;28;20433;-46
2022/09/11 13:46:55;;;;;;;3.95;2.42;;;;;;;;;;5050588;28;20389;-49
2022/09/11 13:49:30;;;;;;;5.68;2.60;;;;;;;;;;5060205;28;20045;-49
2022/09/11 13:51:57;;;;;;;2.90;2.33;;;;;;;;;;5051920;28;20052;-49
2022/09/11 13:54:28;;;;;;;2.38;1.98;;;;;;;;;;5051829;28;20052;-47
2022/09/11 13:56:56;;;;;;;3.05;2.25;;;;;;;;;;5043987;28;20017;-46
2022/09/11 13:59:38;;;;;;;2.17;1.98;;;;;;;;;;5051832;28;20087;-47
2022/09/11 14:02:04;;;;;;;;;;;;;;;;;;5047577;28;20029;-51
2022/09/11 14:04:32;;;;;;;3.70;2.42;;;;;;;;;;5052046;28;19959;-47
2022/09/11 14:06:58;;;;;;;3.22;2.10;;;;;;;;;;5048385;28;20044;-49
2022/09/11 14:09:24;;;;;;;3.40;2.10;;;;;;;;;;5052102;28;20094;-47
2022/09/11 14:11:51;;;;;;;2.63;2.13;;;;;;;;;;5044415;28;20028;-45
2022/09/11 14:14:25;;;;;;;3.03;1.88;;;;;;;;;;5052005;28;20037;-53
2022/09/11 14:16:53;;;;;;;2.85;2.50;;;;;;;;;;5045946;28;20105;-46
2022/09/11 14:19:20;;;;;;;2.55;2.00;;;;;;;;;;5048979;28;20037;-53
2022/09/11 14:21:48;;;;;;;3.28;1.98;;;;;;;;;;5048121;28;20714;-46
2022/09/11 14:24:32;;;;;;;3.85;2.08;;;;;;;;;;5052269;28;20048;-49
2022/09/11 14:27:03;;;;;;;2.30;1.90;;;;;;;;;;5048980;28;20102;-52
2022/09/11 14:29:35;;;;;;;2.55;1.85;;;;;;;;;;5051677;28;20059;-49
2022/09/11 14:32:20;;;;;;;3.78;2.05;;;;;;;;;;5049766;28;20029;-46
2022/09/11 14:34:46;;;;;;;2.97;2.15;;;;;;;;;;5047148;28;20037;-45
2022/09/11 14:37:13;;;;;;;2.47;2.10;;;;;;;;;;5043075;28;20112;-50
2022/09/11 14:39:47;;;;;;;2.63;2.00;;;;;;;;;;5032437;28;20247;-47
2022/09/11 14:42:15;;;;;;;3.33;2.20;;;;;;;;;;5047688;28;20029;-49
2022/09/11 14:44:41;;;;;;;2.50;2.13;;;;;;;;;;5053943;28;20545;-45
2022/09/11 14:47:21;;;;;;;2.85;2.25;;;;;;;;;;5054515;28;20068;-45
2022/09/11 14:49:48;;;;;;;2.47;2.05;;;;;;;;;;5051506;28;20048;-45
2022/09/11 14:52:34;;;;;;;2.10;1.90;;;;;;;;;;5044556;28;20113;-48
2022/09/11 14:55:00;;;;;;;4.68;2.88;;;;;;;;;;5070590;28;20033;-46
2022/09/11 14:57:30;;;;;;;3.35;2.10;;;;;;;;;;5054288;28;20359;-45